This is the latest recevied weather packets stored in our database for station/object BMCB-12. If no packets are shown the sender has not sent any weather packets the latest 10 day(s).
| Time | Temp. | Humidity | Pressure | Rain* | Wind** | Luminosity | Snow |
|---|---|---|---|---|---|---|---|
| 1777152609 | 7.78° C | 56% | 1023.7 hPa | 0 mm | - | 0 W/m² | - |
| 1777152008 | 8.33° C | 56% | 1023.7 hPa | 0 mm | - | 0 W/m² | - |
| 1777148409 | 10° C | 52% | 1023.5 hPa | 0 mm | - | 0 W/m² | - |
| 1777147811 | 10° C | 51% | 1023.5 hPa | 0 mm | - | 0 W/m² | - |
| 1777146009 | 10.56° C | 47% | 1023.1 hPa | 0 mm | - | 0 W/m² | - |
| 1777145408 | 11.11° C | 46% | 1023.1 hPa | 0 mm | - | 0 W/m² | - |
| 1777136407 | 16.67° C | 32% | 1021.8 hPa | 0 mm | - | 38 W/m² | - |
| 1777134008 | 17.22° C | 39% | 1021.6 hPa | 0 mm | - | 58 W/m² | - |
| 1777117207 | 15° C | 55% | 1022.6 hPa | 0 mm | - | 790 W/m² | - |
| 1777063211 | 10.56° C | 75% | 1023.2 hPa | 0 mm | - | 0 W/m² | - |
| 1777060212 | 11.67° C | 71% | 1023.3 hPa | 0 mm | - | 0 W/m² | - |
| 1777045211 | 18.89° C | 38% | 1023.6 hPa | 0 mm | - | 72 W/m² | - |
| 1777044011 | 19.44° C | 38% | 1023.8 hPa | 0 mm | - | 172 W/m² | - |
| 1777042210 | 18.89° C | 37% | 1024 hPa | 0 mm | - | 570 W/m² | - |
| 1777040410 | 19.44° C | 39% | 1024.3 hPa | 0 mm | - | 656 W/m² | - |
| 1777003811 | 2.78° C | 94% | 1026.5 hPa | 0 mm | - | 0 W/m² | - |
| 1777001410 | 3.33° C | 90% | 1026.8 hPa | 0 mm | - | 0 W/m² | - |
| 1777000211 | 3.89° C | 89% | 1026.9 hPa | 0 mm | - | 0 W/m² | - |
| 1776999011 | 4.44° C | 86% | 1027 hPa | 0 mm | - | 0 W/m² | - |
| 1776997811 | 5° C | 83% | 1027.2 hPa | 0 mm | - | 0 W/m² | - |
| 1776994812 | 5° C | 78% | 1027.4 hPa | 0 mm | - | 0 W/m² | - |
| 1776994211 | 5.56° C | 77% | 1027.4 hPa | 0 mm | - | 0 W/m² | - |
| 1776990012 | 7.22° C | 69% | 1027.7 hPa | 0 mm | - | 0 W/m² | - |
* Rain latest hour (hover to see other rain measurements)
** Current wind speed in m/s (hover to see current wind gust speed)